sensor_id;sensor_type;location;lat;lon;timestamp;P1;durP1;ratioP1;P2;durP2;ratioP2
20036;SDS011;10179;42.640;23.312;2023-01-31T00:00:56;30.10;;;12.50;;
20036;SDS011;10179;42.640;23.312;2023-01-31T00:03:28;29.45;;;11.50;;
20036;SDS011;10179;42.640;23.312;2023-01-31T00:05:53;23.75;;;12.02;;
20036;SDS011;10179;42.640;23.312;2023-01-31T00:08:19;23.80;;;9.30;;
20036;SDS011;10179;42.640;23.312;2023-01-31T00:10:44;26.20;;;11.40;;
20036;SDS011;10179;42.640;23.312;2023-01-31T00:13:09;18.80;;;8.32;;
20036;SDS011;10179;42.640;23.312;2023-01-31T00:15:35;24.52;;;11.10;;
20036;SDS011;10179;42.640;23.312;2023-01-31T00:18:00;31.50;;;12.05;;
20036;SDS011;10179;42.640;23.312;2023-01-31T00:20:25;30.33;;;12.45;;
20036;SDS011;10179;42.640;23.312;2023-01-31T00:22:51;37.22;;;16.25;;
20036;SDS011;10179;42.640;23.312;2023-01-31T00:25:17;31.20;;;14.40;;
20036;SDS011;10179;42.640;23.312;2023-01-31T00:27:42;29.58;;;12.05;;
20036;SDS011;10179;42.640;23.312;2023-01-31T00:30:08;33.78;;;14.77;;
20036;SDS011;10179;42.640;23.312;2023-01-31T00:32:34;30.13;;;13.13;;
20036;SDS011;10179;42.640;23.312;2023-01-31T00:34:59;37.15;;;14.27;;
20036;SDS011;10179;42.640;23.312;2023-01-31T00:37:25;33.78;;;13.77;;
20036;SDS011;10179;42.640;23.312;2023-01-31T00:39:50;36.05;;;13.77;;
20036;SDS011;10179;42.640;23.312;2023-01-31T00:42:16;30.23;;;14.23;;
20036;SDS011;10179;42.640;23.312;2023-01-31T00:44:41;30.85;;;13.23;;
20036;SDS011;10179;42.640;23.312;2023-01-31T00:47:06;29.85;;;11.55;;
20036;SDS011;10179;42.640;23.312;2023-01-31T00:49:32;25.70;;;11.55;;
20036;SDS011;10179;42.640;23.312;2023-01-31T00:51:57;26.35;;;11.20;;
20036;SDS011;10179;42.640;23.312;2023-01-31T00:54:22;24.15;;;10.45;;
20036;SDS011;10179;42.640;23.312;2023-01-31T00:56:48;30.42;;;11.40;;
20036;SDS011;10179;42.640;23.312;2023-01-31T00:59:13;29.30;;;12.23;;
20036;SDS011;10179;42.640;23.312;2023-01-31T01:01:39;30.02;;;12.95;;
20036;SDS011;10179;42.640;23.312;2023-01-31T01:04:04;33.05;;;11.38;;
20036;SDS011;10179;42.640;23.312;2023-01-31T01:06:30;28.40;;;11.88;;
20036;SDS011;10179;42.640;23.312;2023-01-31T01:08:56;27.15;;;12.13;;
20036;SDS011;10179;42.640;23.312;2023-01-31T01:11:25;31.42;;;11.88;;
20036;SDS011;10179;42.640;23.312;2023-01-31T01:13:52;26.95;;;11.40;;
20036;SDS011;10179;42.640;23.312;2023-01-31T01:16:19;28.58;;;11.18;;
20036;SDS011;10179;42.640;23.312;2023-01-31T01:18:47;29.05;;;11.85;;
20036;SDS011;10179;42.640;23.312;2023-01-31T01:21:15;24.65;;;10.55;;
20036;SDS011;10179;42.640;23.312;2023-01-31T01:23:48;19.77;;;9.27;;
20036;SDS011;10179;42.640;23.312;2023-01-31T01:26:18;25.98;;;10.20;;
20036;SDS011;10179;42.640;23.312;2023-01-31T01:28:49;11.35;;;5.32;;
20036;SDS011;10179;42.640;23.312;2023-01-31T01:31:15;6.93;;;3.05;;
20036;SDS011;10179;42.640;23.312;2023-01-31T01:33:42;5.75;;;2.67;;
20036;SDS011;10179;42.640;23.312;2023-01-31T01:36:09;7.05;;;2.53;;
20036;SDS011;10179;42.640;23.312;2023-01-31T01:38:45;3.63;;;1.98;;
20036;SDS011;10179;42.640;23.312;2023-01-31T01:41:11;6.63;;;2.58;;
20036;SDS011;10179;42.640;23.312;2023-01-31T01:43:42;5.60;;;2.20;;
20036;SDS011;10179;42.640;23.312;2023-01-31T01:46:08;5.03;;;2.75;;
20036;SDS011;10179;42.640;23.312;2023-01-31T01:48:36;4.95;;;2.70;;
20036;SDS011;10179;42.640;23.312;2023-01-31T01:51:02;10.02;;;2.50;;
20036;SDS011;10179;42.640;23.312;2023-01-31T01:53:30;6.35;;;2.63;;
20036;SDS011;10179;42.640;23.312;2023-01-31T01:56:21;4.70;;;2.53;;
20036;SDS011;10179;42.640;23.312;2023-01-31T01:58:53;4.85;;;2.60;;
20036;SDS011;10179;42.640;23.312;2023-01-31T02:01:23;6.50;;;3.10;;
20036;SDS011;10179;42.640;23.312;2023-01-31T02:03:52;5.60;;;2.65;;
20036;SDS011;10179;42.640;23.312;2023-01-31T02:06:18;6.10;;;2.78;;
20036;SDS011;10179;42.640;23.312;2023-01-31T02:08:44;4.75;;;2.35;;
20036;SDS011;10179;42.640;23.312;2023-01-31T02:11:26;4.88;;;2.80;;
20036;SDS011;10179;42.640;23.312;2023-01-31T02:14:14;4.82;;;2.38;;
20036;SDS011;10179;42.640;23.312;2023-01-31T02:16:39;5.25;;;2.45;;
20036;SDS011;10179;42.640;23.312;2023-01-31T02:19:06;6.15;;;2.78;;
20036;SDS011;10179;42.640;23.312;2023-01-31T02:27:39;6.57;;;2.67;;
20036;SDS011;10179;42.640;23.312;2023-01-31T02:30:32;5.63;;;3.03;;
20036;SDS011;10179;42.640;23.312;2023-01-31T02:35:37;4.82;;;2.55;;
20036;SDS011;10179;42.640;23.312;2023-01-31T02:41:13;6.47;;;2.72;;
20036;SDS011;10179;42.640;23.312;2023-01-31T02:43:51;7.18;;;2.90;;
20036;SDS011;10179;42.640;23.312;2023-01-31T02:47:20;4.95;;;2.95;;
20036;SDS011;10179;42.640;23.312;2023-01-31T02:49:44;5.78;;;2.83;;
20036;SDS011;10179;42.640;23.312;2023-01-31T02:52:30;7.50;;;3.47;;
20036;SDS011;10179;42.640;23.312;2023-01-31T02:55:22;6.25;;;2.75;;
20036;SDS011;10179;42.640;23.312;2023-01-31T02:58:12;7.57;;;3.53;;
20036;SDS011;10179;42.640;23.312;2023-01-31T03:00:40;12.00;;;3.60;;
20036;SDS011;10179;42.640;23.312;2023-01-31T03:03:16;6.85;;;3.65;;
20036;SDS011;10179;42.640;23.312;2023-01-31T03:12:02;7.97;;;3.50;;
20036;SDS011;10179;42.640;23.312;2023-01-31T03:17:07;10.73;;;4.68;;
20036;SDS011;10179;42.640;23.312;2023-01-31T03:22:48;10.00;;;3.47;;
20036;SDS011;10179;42.640;23.312;2023-01-31T03:25:19;8.73;;;3.95;;
20036;SDS011;10179;42.640;23.312;2023-01-31T03:27:49;9.02;;;4.07;;
20036;SDS011;10179;42.640;23.312;2023-01-31T03:30:23;11.45;;;4.43;;
20036;SDS011;10179;42.640;23.312;2023-01-31T03:32:56;8.60;;;3.42;;
20036;SDS011;10179;42.640;23.312;2023-01-31T03:35:28;8.43;;;3.60;;
20036;SDS011;10179;42.640;23.312;2023-01-31T03:38:04;7.50;;;4.18;;
20036;SDS011;10179;42.640;23.312;2023-01-31T03:41:04;8.98;;;3.75;;
20036;SDS011;10179;42.640;23.312;2023-01-31T03:43:48;7.85;;;3.78;;
20036;SDS011;10179;42.640;23.312;2023-01-31T03:46:21;7.93;;;4.07;;
20036;SDS011;10179;42.640;23.312;2023-01-31T03:48:52;9.43;;;4.38;;
20036;SDS011;10179;42.640;23.312;2023-01-31T03:51:21;9.55;;;4.88;;
20036;SDS011;10179;42.640;23.312;2023-01-31T03:54:05;10.35;;;4.85;;
20036;SDS011;10179;42.640;23.312;2023-01-31T03:59:26;11.13;;;5.15;;
20036;SDS011;10179;42.640;23.312;2023-01-31T04:01:57;11.10;;;4.05;;
20036;SDS011;10179;42.640;23.312;2023-01-31T04:04:27;8.15;;;4.30;;
20036;SDS011;10179;42.640;23.312;2023-01-31T04:07:21;10.77;;;4.90;;
20036;SDS011;10179;42.640;23.312;2023-01-31T04:09:47;10.45;;;4.80;;
20036;SDS011;10179;42.640;23.312;2023-01-31T04:12:13;10.35;;;4.88;;
20036;SDS011;10179;42.640;23.312;2023-01-31T04:14:39;10.38;;;5.07;;
20036;SDS011;10179;42.640;23.312;2023-01-31T04:17:05;7.45;;;4.43;;
20036;SDS011;10179;42.640;23.312;2023-01-31T04:19:30;11.88;;;5.07;;
20036;SDS011;10179;42.640;23.312;2023-01-31T04:21:55;8.73;;;4.22;;
20036;SDS011;10179;42.640;23.312;2023-01-31T04:24:21;9.90;;;5.25;;
20036;SDS011;10179;42.640;23.312;2023-01-31T04:26:47;10.55;;;5.00;;
20036;SDS011;10179;42.640;23.312;2023-01-31T04:29:12;12.18;;;5.63;;
20036;SDS011;10179;42.640;23.312;2023-01-31T04:31:38;10.02;;;5.22;;
20036;SDS011;10179;42.640;23.312;2023-01-31T04:34:04;10.75;;;5.15;;
20036;SDS011;10179;42.640;23.312;2023-01-31T04:36:29;13.15;;;5.68;;
20036;SDS011;10179;42.640;23.312;2023-01-31T04:38:55;12.07;;;5.70;;
20036;SDS011;10179;42.640;23.312;2023-01-31T04:41:20;10.90;;;5.47;;
20036;SDS011;10179;42.640;23.312;2023-01-31T04:43:46;11.77;;;6.00;;
20036;SDS011;10179;42.640;23.312;2023-01-31T04:46:11;10.82;;;5.50;;
20036;SDS011;10179;42.640;23.312;2023-01-31T04:48:37;9.63;;;5.05;;
20036;SDS011;10179;42.640;23.312;2023-01-31T04:51:04;11.52;;;4.97;;
20036;SDS011;10179;42.640;23.312;2023-01-31T04:53:29;11.43;;;5.20;;
20036;SDS011;10179;42.640;23.312;2023-01-31T04:55:55;13.48;;;4.93;;
20036;SDS011;10179;42.640;23.312;2023-01-31T04:58:21;10.73;;;4.70;;
20036;SDS011;10179;42.640;23.312;2023-01-31T05:00:47;9.00;;;4.90;;
20036;SDS011;10179;42.640;23.312;2023-01-31T05:03:12;12.38;;;5.22;;
20036;SDS011;10179;42.640;23.312;2023-01-31T05:05:38;8.68;;;4.43;;
20036;SDS011;10179;42.640;23.312;2023-01-31T05:08:04;12.82;;;5.50;;
20036;SDS011;10179;42.640;23.312;2023-01-31T05:10:30;10.70;;;4.80;;
20036;SDS011;10179;42.640;23.312;2023-01-31T05:12:55;10.65;;;5.07;;
20036;SDS011;10179;42.640;23.312;2023-01-31T05:15:20;11.18;;;5.38;;
20036;SDS011;10179;42.640;23.312;2023-01-31T05:17:53;9.38;;;4.28;;
20036;SDS011;10179;42.640;23.312;2023-01-31T05:20:26;10.13;;;4.40;;
20036;SDS011;10179;42.640;23.312;2023-01-31T05:22:53;8.18;;;3.97;;
20036;SDS011;10179;42.640;23.312;2023-01-31T05:25:18;9.70;;;4.60;;
20036;SDS011;10179;42.640;23.312;2023-01-31T05:27:44;6.68;;;4.00;;
20036;SDS011;10179;42.640;23.312;2023-01-31T05:30:09;7.45;;;4.20;;
20036;SDS011;10179;42.640;23.312;2023-01-31T05:32:36;11.07;;;5.07;;
20036;SDS011;10179;42.640;23.312;2023-01-31T05:35:01;7.32;;;3.97;;
20036;SDS011;10179;42.640;23.312;2023-01-31T05:37:27;8.80;;;4.07;;
20036;SDS011;10179;42.640;23.312;2023-01-31T05:39:52;9.18;;;4.88;;
20036;SDS011;10179;42.640;23.312;2023-01-31T05:42:18;8.68;;;4.22;;
20036;SDS011;10179;42.640;23.312;2023-01-31T05:44:43;8.82;;;3.95;;
20036;SDS011;10179;42.640;23.312;2023-01-31T05:47:09;8.10;;;4.43;;
20036;SDS011;10179;42.640;23.312;2023-01-31T05:49:35;8.60;;;4.43;;
20036;SDS011;10179;42.640;23.312;2023-01-31T05:52:01;9.75;;;4.20;;
20036;SDS011;10179;42.640;23.312;2023-01-31T05:54:26;7.45;;;4.00;;
20036;SDS011;10179;42.640;23.312;2023-01-31T05:56:52;7.70;;;3.88;;
20036;SDS011;10179;42.640;23.312;2023-01-31T05:59:17;8.68;;;4.57;;
20036;SDS011;10179;42.640;23.312;2023-01-31T06:01:43;9.07;;;4.53;;
20036;SDS011;10179;42.640;23.312;2023-01-31T06:04:09;8.73;;;4.13;;
20036;SDS011;10179;42.640;23.312;2023-01-31T06:06:34;12.20;;;4.25;;
20036;SDS011;10179;42.640;23.312;2023-01-31T06:09:00;7.95;;;3.90;;
20036;SDS011;10179;42.640;23.312;2023-01-31T06:11:25;10.77;;;4.50;;
20036;SDS011;10179;42.640;23.312;2023-01-31T06:13:51;11.80;;;5.05;;
20036;SDS011;10179;42.640;23.312;2023-01-31T06:16:18;9.68;;;4.75;;
20036;SDS011;10179;42.640;23.312;2023-01-31T06:18:43;9.50;;;4.50;;
20036;SDS011;10179;42.640;23.312;2023-01-31T06:21:09;8.10;;;3.92;;
20036;SDS011;10179;42.640;23.312;2023-01-31T06:23:36;9.98;;;4.55;;
20036;SDS011;10179;42.640;23.312;2023-01-31T06:26:01;11.18;;;4.35;;
20036;SDS011;10179;42.640;23.312;2023-01-31T06:28:27;9.30;;;4.72;;
20036;SDS011;10179;42.640;23.312;2023-01-31T06:30:52;9.40;;;4.72;;
20036;SDS011;10179;42.640;23.312;2023-01-31T06:33:17;8.90;;;4.32;;
20036;SDS011;10179;42.640;23.312;2023-01-31T06:35:43;10.35;;;4.88;;
20036;SDS011;10179;42.640;23.312;2023-01-31T06:38:09;9.25;;;4.65;;
20036;SDS011;10179;42.640;23.312;2023-01-31T06:40:36;15.68;;;4.78;;
20036;SDS011;10179;42.640;23.312;2023-01-31T06:43:01;8.82;;;4.22;;
20036;SDS011;10179;42.640;23.312;2023-01-31T06:45:27;9.07;;;4.95;;
20036;SDS011;10179;42.640;23.312;2023-01-31T06:47:53;9.23;;;4.90;;
20036;SDS011;10179;42.640;23.312;2023-01-31T06:50:18;11.05;;;5.75;;
20036;SDS011;10179;42.640;23.312;2023-01-31T06:52:43;8.57;;;4.53;;
20036;SDS011;10179;42.640;23.312;2023-01-31T06:55:09;9.35;;;5.53;;
20036;SDS011;10179;42.640;23.312;2023-01-31T06:57:35;11.30;;;5.22;;
20036;SDS011;10179;42.640;23.312;2023-01-31T07:00:02;11.77;;;5.28;;
20036;SDS011;10179;42.640;23.312;2023-01-31T07:02:28;8.95;;;4.43;;
20036;SDS011;10179;42.640;23.312;2023-01-31T07:04:53;8.23;;;4.07;;
20036;SDS011;10179;42.640;23.312;2023-01-31T07:07:20;10.15;;;4.38;;
20036;SDS011;10179;42.640;23.312;2023-01-31T07:09:45;9.25;;;4.40;;
20036;SDS011;10179;42.640;23.312;2023-01-31T07:12:10;10.32;;;4.45;;
20036;SDS011;10179;42.640;23.312;2023-01-31T07:14:36;10.82;;;4.20;;
20036;SDS011;10179;42.640;23.312;2023-01-31T07:17:01;11.82;;;4.45;;
20036;SDS011;10179;42.640;23.312;2023-01-31T07:19:27;8.35;;;3.92;;
20036;SDS011;10179;42.640;23.312;2023-01-31T07:21:52;7.78;;;4.28;;
20036;SDS011;10179;42.640;23.312;2023-01-31T07:24:17;8.55;;;4.32;;
20036;SDS011;10179;42.640;23.312;2023-01-31T07:26:43;8.90;;;4.32;;
20036;SDS011;10179;42.640;23.312;2023-01-31T07:29:08;8.75;;;4.45;;
20036;SDS011;10179;42.640;23.312;2023-01-31T07:31:36;12.80;;;4.93;;
20036;SDS011;10179;42.640;23.312;2023-01-31T07:34:02;9.02;;;4.35;;
20036;SDS011;10179;42.640;23.312;2023-01-31T07:36:27;7.75;;;4.30;;
20036;SDS011;10179;42.640;23.312;2023-01-31T07:38:53;9.77;;;4.80;;
20036;SDS011;10179;42.640;23.312;2023-01-31T07:41:20;11.98;;;5.13;;
20036;SDS011;10179;42.640;23.312;2023-01-31T07:43:46;8.27;;;4.35;;
20036;SDS011;10179;42.640;23.312;2023-01-31T07:46:11;8.43;;;4.30;;
20036;SDS011;10179;42.640;23.312;2023-01-31T07:48:37;8.40;;;4.25;;
20036;SDS011;10179;42.640;23.312;2023-01-31T07:51:02;11.55;;;4.55;;
20036;SDS011;10179;42.640;23.312;2023-01-31T07:53:29;8.30;;;4.50;;
20036;SDS011;10179;42.640;23.312;2023-01-31T07:56:04;8.48;;;4.10;;
20036;SDS011;10179;42.640;23.312;2023-01-31T07:58:40;9.07;;;4.60;;
20036;SDS011;10179;42.640;23.312;2023-01-31T08:01:08;7.90;;;4.55;;
20036;SDS011;10179;42.640;23.312;2023-01-31T08:03:58;11.13;;;5.05;;
20036;SDS011;10179;42.640;23.312;2023-01-31T08:06:23;7.95;;;4.30;;
20036;SDS011;10179;42.640;23.312;2023-01-31T08:08:51;8.60;;;4.50;;
20036;SDS011;10179;42.640;23.312;2023-01-31T08:11:16;8.70;;;4.53;;
20036;SDS011;10179;42.640;23.312;2023-01-31T08:13:42;9.02;;;5.03;;
20036;SDS011;10179;42.640;23.312;2023-01-31T08:16:08;7.47;;;3.90;;
20036;SDS011;10179;42.640;23.312;2023-01-31T08:18:34;8.13;;;3.97;;
20036;SDS011;10179;42.640;23.312;2023-01-31T08:21:00;8.93;;;4.18;;
20036;SDS011;10179;42.640;23.312;2023-01-31T08:23:26;7.13;;;4.13;;
20036;SDS011;10179;42.640;23.312;2023-01-31T08:25:56;6.43;;;3.70;;
20036;SDS011;10179;42.640;23.312;2023-01-31T08:28:23;6.57;;;3.55;;
20036;SDS011;10179;42.640;23.312;2023-01-31T08:30:49;8.02;;;4.30;;
20036;SDS011;10179;42.640;23.312;2023-01-31T08:33:14;5.93;;;3.95;;
20036;SDS011;10179;42.640;23.312;2023-01-31T08:35:39;5.38;;;3.50;;
20036;SDS011;10179;42.640;23.312;2023-01-31T08:38:05;6.70;;;4.22;;
20036;SDS011;10179;42.640;23.312;2023-01-31T08:40:30;7.18;;;4.03;;
20036;SDS011;10179;42.640;23.312;2023-01-31T08:42:57;10.60;;;4.82;;
20036;SDS011;10179;42.640;23.312;2023-01-31T08:45:24;11.18;;;4.45;;
20036;SDS011;10179;42.640;23.312;2023-01-31T08:47:53;6.15;;;3.53;;
20036;SDS011;10179;42.640;23.312;2023-01-31T08:50:20;8.07;;;3.65;;
20036;SDS011;10179;42.640;23.312;2023-01-31T08:52:50;8.00;;;3.90;;
20036;SDS011;10179;42.640;23.312;2023-01-31T08:55:17;9.27;;;3.80;;
20036;SDS011;10179;42.640;23.312;2023-01-31T08:57:43;6.03;;;3.55;;
20036;SDS011;10179;42.640;23.312;2023-01-31T09:00:08;5.45;;;3.25;;
20036;SDS011;10179;42.640;23.312;2023-01-31T09:02:34;4.30;;;3.10;;
20036;SDS011;10179;42.640;23.312;2023-01-31T09:04:59;4.85;;;2.92;;
20036;SDS011;10179;42.640;23.312;2023-01-31T09:07:25;5.53;;;3.20;;
20036;SDS011;10179;42.640;23.312;2023-01-31T09:09:50;5.30;;;3.05;;
20036;SDS011;10179;42.640;23.312;2023-01-31T09:12:16;6.55;;;3.28;;
20036;SDS011;10179;42.640;23.312;2023-01-31T09:14:41;5.78;;;3.38;;
20036;SDS011;10179;42.640;23.312;2023-01-31T09:17:06;6.60;;;3.97;;
20036;SDS011;10179;42.640;23.312;2023-01-31T09:19:34;7.30;;;3.55;;
20036;SDS011;10179;42.640;23.312;2023-01-31T09:22:00;5.72;;;3.63;;
20036;SDS011;10179;42.640;23.312;2023-01-31T09:24:25;6.78;;;3.53;;
20036;SDS011;10179;42.640;23.312;2023-01-31T09:26:51;10.40;;;3.03;;
20036;SDS011;10179;42.640;23.312;2023-01-31T09:29:18;6.40;;;3.50;;
20036;SDS011;10179;42.640;23.312;2023-01-31T09:31:43;8.48;;;3.50;;
20036;SDS011;10179;42.640;23.312;2023-01-31T09:34:09;6.22;;;3.00;;
20036;SDS011;10179;42.640;23.312;2023-01-31T09:36:34;4.63;;;3.08;;
20036;SDS011;10179;42.640;23.312;2023-01-31T09:39:00;5.90;;;3.72;;
20036;SDS011;10179;42.640;23.312;2023-01-31T09:41:30;9.40;;;4.18;;
20036;SDS011;10179;42.640;23.312;2023-01-31T09:46:52;4.07;;;2.80;;
20036;SDS011;10179;42.640;23.312;2023-01-31T09:49:53;7.18;;;2.92;;
20036;SDS011;10179;42.640;23.312;2023-01-31T09:52:24;7.00;;;3.10;;
20036;SDS011;10179;42.640;23.312;2023-01-31T09:54:52;9.50;;;4.43;;
20036;SDS011;10179;42.640;23.312;2023-01-31T10:05:56;6.03;;;2.72;;
20036;SDS011;10179;42.640;23.312;2023-01-31T10:16:50;24.02;;;3.17;;
20036;SDS011;10179;42.640;23.312;2023-01-31T10:22:19;6.32;;;3.08;;
20036;SDS011;10179;42.640;23.312;2023-01-31T10:24:54;5.95;;;3.33;;
20036;SDS011;10179;42.640;23.312;2023-01-31T10:30:05;3.85;;;2.30;;
20036;SDS011;10179;42.640;23.312;2023-01-31T10:32:42;2.42;;;2.03;;
20036;SDS011;10179;42.640;23.312;2023-01-31T10:35:20;5.25;;;2.50;;
20036;SDS011;10179;42.640;23.312;2023-01-31T10:37:53;3.47;;;2.40;;
20036;SDS011;10179;42.640;23.312;2023-01-31T10:40:44;3.08;;;2.33;;
20036;SDS011;10179;42.640;23.312;2023-01-31T10:43:15;3.33;;;2.33;;
20036;SDS011;10179;42.640;23.312;2023-01-31T10:45:46;3.17;;;2.00;;
20036;SDS011;10179;42.640;23.312;2023-01-31T10:58:58;7.00;;;3.67;;
20036;SDS011;10179;42.640;23.312;2023-01-31T11:01:26;5.88;;;3.03;;
20036;SDS011;10179;42.640;23.312;2023-01-31T11:03:53;4.60;;;3.22;;
20036;SDS011;10179;42.640;23.312;2023-01-31T11:06:20;7.60;;;3.35;;
20036;SDS011;10179;42.640;23.312;2023-01-31T11:11:19;4.97;;;3.53;;
20036;SDS011;10179;42.640;23.312;2023-01-31T11:16:24;8.60;;;3.15;;
20036;SDS011;10179;42.640;23.312;2023-01-31T11:19:02;4.10;;;2.70;;
20036;SDS011;10179;42.640;23.312;2023-01-31T11:21:39;6.97;;;3.20;;
20036;SDS011;10179;42.640;23.312;2023-01-31T11:24:06;5.72;;;3.75;;
20036;SDS011;10179;42.640;23.312;2023-01-31T11:26:47;7.75;;;3.40;;
20036;SDS011;10179;42.640;23.312;2023-01-31T11:29:24;7.65;;;4.32;;
20036;SDS011;10179;42.640;23.312;2023-01-31T11:31:53;9.45;;;4.50;;
20036;SDS011;10179;42.640;23.312;2023-01-31T11:34:21;5.13;;;3.30;;
20036;SDS011;10179;42.640;23.312;2023-01-31T11:36:49;7.63;;;4.03;;
20036;SDS011;10179;42.640;23.312;2023-01-31T11:39:17;7.00;;;3.40;;
20036;SDS011;10179;42.640;23.312;2023-01-31T11:42:05;3.72;;;3.00;;
20036;SDS011;10179;42.640;23.312;2023-01-31T11:44:36;6.40;;;3.33;;
20036;SDS011;10179;42.640;23.312;2023-01-31T11:47:02;8.20;;;3.40;;
20036;SDS011;10179;42.640;23.312;2023-01-31T11:49:36;6.40;;;3.30;;
20036;SDS011;10179;42.640;23.312;2023-01-31T11:52:15;6.78;;;3.13;;
20036;SDS011;10179;42.640;23.312;2023-01-31T11:54:48;9.15;;;3.67;;
20036;SDS011;10179;42.640;23.312;2023-01-31T11:57:26;10.90;;;4.43;;
20036;SDS011;10179;42.640;23.312;2023-01-31T11:59:55;7.53;;;3.78;;
20036;SDS011;10179;42.640;23.312;2023-01-31T12:02:25;6.97;;;3.95;;
20036;SDS011;10179;42.640;23.312;2023-01-31T12:04:55;9.90;;;4.60;;
20036;SDS011;10179;42.640;23.312;2023-01-31T12:07:26;7.68;;;3.55;;
20036;SDS011;10179;42.640;23.312;2023-01-31T12:09:56;5.38;;;3.97;;
20036;SDS011;10179;42.640;23.312;2023-01-31T12:12:29;4.57;;;3.25;;
20036;SDS011;10179;42.640;23.312;2023-01-31T12:15:02;7.20;;;4.20;;
20036;SDS011;10179;42.640;23.312;2023-01-31T12:17:30;5.93;;;3.83;;
20036;SDS011;10179;42.640;23.312;2023-01-31T12:22:37;9.85;;;4.32;;
20036;SDS011;10179;42.640;23.312;2023-01-31T12:25:15;6.35;;;3.97;;
20036;SDS011;10179;42.640;23.312;2023-01-31T12:28:02;6.28;;;3.10;;
20036;SDS011;10179;42.640;23.312;2023-01-31T12:35:52;4.68;;;3.33;;
20036;SDS011;10179;42.640;23.312;2023-01-31T12:44:14;4.50;;;3.47;;
20036;SDS011;10179;42.640;23.312;2023-01-31T12:46:57;9.27;;;3.40;;
20036;SDS011;10179;42.640;23.312;2023-01-31T13:00:14;3.15;;;2.63;;
20036;SDS011;10179;42.640;23.312;2023-01-31T13:05:26;4.22;;;2.78;;
20036;SDS011;10179;42.640;23.312;2023-01-31T13:10:45;3.28;;;2.72;;
20036;SDS011;10179;42.640;23.312;2023-01-31T13:13:29;3.05;;;2.50;;
20036;SDS011;10179;42.640;23.312;2023-01-31T13:16:00;5.30;;;3.15;;
20036;SDS011;10179;42.640;23.312;2023-01-31T13:18:32;6.65;;;3.20;;
20036;SDS011;10179;42.640;23.312;2023-01-31T13:21:00;6.85;;;3.03;;
20036;SDS011;10179;42.640;23.312;2023-01-31T13:23:31;5.15;;;3.28;;
20036;SDS011;10179;42.640;23.312;2023-01-31T13:26:12;5.80;;;3.47;;
20036;SDS011;10179;42.640;23.312;2023-01-31T13:37:08;6.45;;;3.17;;
20036;SDS011;10179;42.640;23.312;2023-01-31T13:42:17;11.05;;;4.18;;
20036;SDS011;10179;42.640;23.312;2023-01-31T13:44:44;11.13;;;5.18;;
20036;SDS011;10179;42.640;23.312;2023-01-31T13:47:12;8.15;;;2.65;;
20036;SDS011;10179;42.640;23.312;2023-01-31T13:49:46;4.15;;;2.67;;
20036;SDS011;10179;42.640;23.312;2023-01-31T13:54:46;5.60;;;3.40;;
20036;SDS011;10179;42.640;23.312;2023-01-31T13:57:24;4.57;;;3.13;;
20036;SDS011;10179;42.640;23.312;2023-01-31T13:59:54;7.60;;;3.10;;
20036;SDS011;10179;42.640;23.312;2023-01-31T14:02:24;5.80;;;3.85;;
20036;SDS011;10179;42.640;23.312;2023-01-31T14:04:50;6.07;;;3.15;;
20036;SDS011;10179;42.640;23.312;2023-01-31T14:07:19;7.28;;;3.78;;
20036;SDS011;10179;42.640;23.312;2023-01-31T14:22:28;9.20;;;3.75;;
20036;SDS011;10179;42.640;23.312;2023-01-31T14:27:58;8.88;;;3.58;;
20036;SDS011;10179;42.640;23.312;2023-01-31T14:30:38;5.50;;;3.53;;
20036;SDS011;10179;42.640;23.312;2023-01-31T14:55:17;6.65;;;3.15;;
20036;SDS011;10179;42.640;23.312;2023-01-31T14:58:00;5.28;;;3.10;;
20036;SDS011;10179;42.640;23.312;2023-01-31T15:00:29;6.78;;;3.40;;
20036;SDS011;10179;42.640;23.312;2023-01-31T15:03:04;4.07;;;2.83;;
20036;SDS011;10179;42.640;23.312;2023-01-31T15:08:08;6.65;;;3.28;;
20036;SDS011;10179;42.640;23.312;2023-01-31T15:13:50;8.70;;;3.80;;
20036;SDS011;10179;42.640;23.312;2023-01-31T15:16:27;7.03;;;3.60;;
20036;SDS011;10179;42.640;23.312;2023-01-31T15:21:26;6.28;;;3.83;;
20036;SDS011;10179;42.640;23.312;2023-01-31T15:23:56;5.70;;;3.80;;
20036;SDS011;10179;42.640;23.312;2023-01-31T15:26:24;7.25;;;3.80;;
20036;SDS011;10179;42.640;23.312;2023-01-31T15:28:53;4.82;;;3.60;;
20036;SDS011;10179;42.640;23.312;2023-01-31T15:31:34;8.25;;;4.13;;
20036;SDS011;10179;42.640;23.312;2023-01-31T15:34:07;11.48;;;4.43;;
20036;SDS011;10179;42.640;23.312;2023-01-31T15:36:58;6.68;;;3.88;;
20036;SDS011;10179;42.640;23.312;2023-01-31T15:39:38;9.32;;;4.50;;
20036;SDS011;10179;42.640;23.312;2023-01-31T15:42:19;7.85;;;4.15;;
20036;SDS011;10179;42.640;23.312;2023-01-31T15:44:49;6.22;;;4.13;;
20036;SDS011;10179;42.640;23.312;2023-01-31T15:47:18;5.60;;;4.15;;
20036;SDS011;10179;42.640;23.312;2023-01-31T15:49:46;8.73;;;3.60;;
20036;SDS011;10179;42.640;23.312;2023-01-31T15:52:16;7.63;;;4.10;;
20036;SDS011;10179;42.640;23.312;2023-01-31T15:54:55;7.53;;;4.05;;
20036;SDS011;10179;42.640;23.312;2023-01-31T15:57:23;14.55;;;6.47;;
20036;SDS011;10179;42.640;23.312;2023-01-31T15:59:52;5.57;;;3.72;;
20036;SDS011;10179;42.640;23.312;2023-01-31T16:02:24;6.65;;;3.50;;
20036;SDS011;10179;42.640;23.312;2023-01-31T16:04:52;5.72;;;3.42;;
20036;SDS011;10179;42.640;23.312;2023-01-31T16:07:19;5.68;;;3.63;;
20036;SDS011;10179;42.640;23.312;2023-01-31T16:09:47;6.57;;;3.70;;
20036;SDS011;10179;42.640;23.312;2023-01-31T16:12:13;7.03;;;4.03;;
20036;SDS011;10179;42.640;23.312;2023-01-31T16:14:44;6.55;;;4.50;;
20036;SDS011;10179;42.640;23.312;2023-01-31T16:17:11;6.57;;;4.32;;
20036;SDS011;10179;42.640;23.312;2023-01-31T16:19:38;7.65;;;4.45;;
20036;SDS011;10179;42.640;23.312;2023-01-31T16:22:15;7.93;;;4.53;;
20036;SDS011;10179;42.640;23.312;2023-01-31T16:24:51;9.15;;;4.40;;
20036;SDS011;10179;42.640;23.312;2023-01-31T16:27:18;8.38;;;4.80;;
20036;SDS011;10179;42.640;23.312;2023-01-31T16:29:48;8.63;;;4.07;;
20036;SDS011;10179;42.640;23.312;2023-01-31T16:32:20;7.03;;;4.13;;
20036;SDS011;10179;42.640;23.312;2023-01-31T16:34:53;7.15;;;3.80;;
20036;SDS011;10179;42.640;23.312;2023-01-31T16:37:33;8.43;;;3.95;;
20036;SDS011;10179;42.640;23.312;2023-01-31T16:40:05;7.45;;;4.10;;
20036;SDS011;10179;42.640;23.312;2023-01-31T16:42:45;7.45;;;4.50;;
20036;SDS011;10179;42.640;23.312;2023-01-31T16:45:25;6.65;;;3.95;;
20036;SDS011;10179;42.640;23.312;2023-01-31T16:50:45;5.75;;;4.22;;
20036;SDS011;10179;42.640;23.312;2023-01-31T16:55:46;4.55;;;3.40;;
20036;SDS011;10179;42.640;23.312;2023-01-31T16:59:10;9.68;;;3.70;;
20036;SDS011;10179;42.640;23.312;2023-01-31T17:01:29;14.15;;;3.95;;
20036;SDS011;10179;42.640;23.312;2023-01-31T17:06:28;5.97;;;3.42;;
20036;SDS011;10179;42.640;23.312;2023-01-31T17:08:54;5.35;;;3.35;;
20036;SDS011;10179;42.640;23.312;2023-01-31T17:11:20;7.20;;;3.33;;
20036;SDS011;10179;42.640;23.312;2023-01-31T17:13:46;7.38;;;3.60;;
20036;SDS011;10179;42.640;23.312;2023-01-31T17:16:12;6.43;;;3.65;;
20036;SDS011;10179;42.640;23.312;2023-01-31T17:18:38;6.85;;;3.72;;
20036;SDS011;10179;42.640;23.312;2023-01-31T17:21:04;9.70;;;4.00;;
20036;SDS011;10179;42.640;23.312;2023-01-31T17:23:30;6.18;;;3.20;;
20036;SDS011;10179;42.640;23.312;2023-01-31T17:25:55;6.63;;;3.60;;
20036;SDS011;10179;42.640;23.312;2023-01-31T17:28:21;6.40;;;3.42;;
20036;SDS011;10179;42.640;23.312;2023-01-31T17:30:46;5.57;;;3.35;;